Time;durP1;ratioP1;P1;durP2;ratioP2;P2;SDS_P1;SDS_P2;PMS_P1;PMS_P2;Temp;Humidity;BMP_temperature;BMP_pressure;BME280_temperature;BME280_humidity;BME280_pressure;Samples;Min_cycle;Max_cycle;Signal;HPM_P1;HPM_P2
2022/06/16 00:00:20;;;;;;;;;;;17.60;99.60;;;;;;5065720;28;19971;-69
2022/06/16 00:02:47;;;;;;;;;;;17.60;99.90;;;;;;5070804;28;19925;-68
2022/06/16 00:05:16;;;;;;;;;;;17.50;99.90;;;;;;5061422;28;19931;-69
2022/06/16 00:07:43;;;;;;;;;;;17.40;99.90;;;;;;5069646;28;20390;-68
2022/06/16 00:10:10;;;;;;;;;;;17.40;99.90;;;;;;5070239;28;19924;-69
2022/06/16 00:12:37;;;;;;;;;;;17.40;99.90;;;;;;5067637;28;19978;-69
2022/06/16 00:15:05;;;;;;;;;;;17.30;99.90;;;;;;5063411;28;20379;-69
2022/06/16 00:17:32;;;;;;;;;;;17.30;99.90;;;;;;5069724;28;20444;-69
2022/06/16 00:20:00;;;;;;;;;;;17.20;99.90;;;;;;5058523;28;19970;-69
2022/06/16 00:22:29;;;;;;;;;;;17.20;99.90;;;;;;5067220;28;19924;-70
2022/06/16 00:24:55;;;;;;;;;;;17.10;99.90;;;;;;5061905;28;19986;-70
2022/06/16 00:27:22;;;;;;;;;;;17.00;99.90;;;;;;5060983;28;19931;-69
2022/06/16 00:29:49;;;;;;;;;;;17.00;99.90;;;;;;5056377;28;19979;-69
2022/06/16 00:32:15;;;;;;;;;;;17.00;99.90;;;;;;5056298;28;19970;-70
2022/06/16 00:34:42;;;;;;;;;;;16.90;99.90;;;;;;5058906;28;20342;-69
2022/06/16 00:37:09;;;;;;;;;;;16.90;99.90;;;;;;5065986;28;19925;-69
2022/06/16 00:39:37;;;;;;;;;;;16.80;99.90;;;;;;5061445;28;20271;-70
2022/06/16 00:42:08;;;;;;;;;;;16.70;99.90;;;;;;5063888;28;19979;-69
2022/06/16 00:44:39;;;;;;;;;;;16.70;99.90;;;;;;5061108;28;19932;-69
2022/06/16 00:47:06;;;;;;;;;;;16.60;99.90;;;;;;5052245;28;20076;-69
2022/06/16 00:49:34;;;;;;;;;;;16.60;99.90;;;;;;5058094;28;19924;-69
2022/06/16 00:52:02;;;;;;;;;;;16.50;99.90;;;;;;5065865;28;19978;-69
2022/06/16 00:54:32;;;;;;;;;;;16.60;99.90;;;;;;5057871;28;19935;-69
2022/06/16 00:57:02;;;;;;;;;;;16.60;99.90;;;;;;5062616;28;20005;-69
2022/06/16 00:59:29;;;;;;;;;;;16.50;99.90;;;;;;5069151;28;20409;-69
2022/06/16 01:01:56;;;;;;;;;;;16.50;99.90;;;;;;5060052;28;19925;-69
2022/06/16 01:07:24;;;;;;;;;;;16.40;99.90;;;;;;4996031;28;19925;-68
2022/06/16 01:09:51;;;;;;;;;;;16.20;99.90;;;;;;4998475;28;19935;-69
2022/06/16 01:15:26;;;;;;;;;;;16.00;99.90;;;;;;5060461;28;19952;-68
2022/06/16 01:17:56;;;;;;;;;;;16.00;99.90;;;;;;5053520;28;19931;-68
2022/06/16 01:20:30;;;;;;;;;;;16.00;99.90;;;;;;5067260;28;20435;-69
2022/06/16 01:23:24;;;;;;;;;;;15.90;99.90;;;;;;5054227;28;19925;-69
2022/06/16 01:25:54;;;;;;;;;;;15.90;99.90;;;;;;5010359;28;19928;-69
2022/06/16 01:28:25;;;;;;;;;;;15.90;99.90;;;;;;5060468;28;20314;-69
2022/06/16 01:30:57;;;;;;;;;;;15.90;99.90;;;;;;5050903;28;19932;-69
2022/06/16 01:33:26;;;;;;;;;;;15.80;99.90;;;;;;5056662;28;19979;-68
2022/06/16 01:35:55;;;;;;;;;;;15.80;99.90;;;;;;5068609;28;19963;-70
2022/06/16 01:38:25;;;;;;;;;;;15.80;99.90;;;;;;5053552;28;20387;-70
2022/06/16 01:40:55;;;;;;;;;;;15.70;99.90;;;;;;5067833;28;19974;-68
2022/06/16 01:43:26;;;;;;;;;;;15.70;99.90;;;;;;5067423;28;19986;-68
2022/06/16 01:45:54;;;;;;;;;;;15.60;99.90;;;;;;5065025;28;20376;-69
2022/06/16 01:48:24;;;;;;;;;;;15.50;99.90;;;;;;5068146;28;19970;-69
2022/06/16 01:50:53;;;;;;;;;;;15.50;99.90;;;;;;5058327;28;19925;-69
2022/06/16 01:53:21;;;;;;;;;;;15.50;99.90;;;;;;5052175;28;20350;-70
2022/06/16 01:55:51;;;;;;;;;;;15.40;99.90;;;;;;5056364;28;19929;-67
2022/06/16 01:58:21;;;;;;;;;;;15.40;99.90;;;;;;5067120;28;20433;-67
2022/06/16 02:00:49;;;;;;;;;;;15.40;99.90;;;;;;5063840;28;20384;-69
2022/06/16 02:03:19;;;;;;;;;;;15.40;99.90;;;;;;5063352;28;19932;-69
2022/06/16 02:05:49;;;;;;;;;;;15.30;99.90;;;;;;5067695;28;19972;-70
2022/06/16 02:08:17;;;;;;;;;;;15.30;99.90;;;;;;5051590;28;19931;-69
2022/06/16 02:10:44;;;;;;;;;;;15.30;99.90;;;;;;5057718;28;19925;-69
2022/06/16 02:13:13;;;;;;;;;;;15.30;99.90;;;;;;5068571;28;19924;-69
2022/06/16 02:15:42;;;;;;;;;;;15.30;99.90;;;;;;5065487;28;19931;-69
2022/06/16 02:18:10;;;;;;;;;;;15.30;99.90;;;;;;5070871;28;20388;-69
2022/06/16 02:20:40;;;;;;;;;;;15.30;99.90;;;;;;5052990;28;19931;-69
2022/06/16 02:23:08;;;;;;;;;;;15.30;99.90;;;;;;5058794;28;19924;-69
2022/06/16 02:25:35;;;;;;;;;;;15.30;99.90;;;;;;5065938;28;20353;-69
2022/06/16 02:28:02;;;;;;;;;;;15.30;99.90;;;;;;5059335;28;20387;-69
2022/06/16 02:30:32;;;;;;;;;;;15.20;99.90;;;;;;5065742;28;19928;-69
2022/06/16 02:33:01;;;;;;;;;;;15.30;99.90;;;;;;5060026;28;19951;-69
2022/06/16 02:35:32;;;;;;;;;;;15.30;99.90;;;;;;5070081;28;20030;-69
2022/06/16 02:38:07;;;;;;;;;;;15.20;99.90;;;;;;5060235;28;19928;-68
2022/06/16 02:40:40;;;;;;;;;;;15.10;99.90;;;;;;5058258;28;20338;-68
2022/06/16 02:43:14;;;;;;;;;;;15.00;99.90;;;;;;5065674;28;19925;-67
2022/06/16 02:45:44;;;;;;;;;;;15.00;99.90;;;;;;5055627;28;19983;-67
2022/06/16 02:48:14;;;;;;;;;;;15.00;99.90;;;;;;5060538;28;19929;-67
2022/06/16 02:50:44;;;;;;;;;;;14.90;99.90;;;;;;5066926;28;20541;-67
2022/06/16 02:53:17;;;;;;;;;;;14.90;99.90;;;;;;5071930;28;20359;-68
2022/06/16 02:55:47;;;;;;;;;;;14.80;99.90;;;;;;5059326;28;19971;-67
2022/06/16 02:58:15;;;;;;;;;;;14.80;99.90;;;;;;5059885;28;19929;-68
2022/06/16 03:00:44;;;;;;;;;;;14.80;99.90;;;;;;5068438;28;20011;-68
2022/06/16 03:03:18;;;;;;;;;;;14.80;99.90;;;;;;5065009;28;20015;-67
2022/06/16 03:05:45;;;;;;;;;;;14.80;99.90;;;;;;5060655;28;19932;-68
2022/06/16 03:08:11;;;;;;;;;;;14.60;99.90;;;;;;5059739;28;19924;-68
2022/06/16 03:10:54;;;;;;;;;;;14.60;99.90;;;;;;5059541;28;20047;-69
2022/06/16 03:13:23;;;;;;;;;;;14.50;99.90;;;;;;5063208;28;20379;-69
2022/06/16 03:15:51;;;;;;;;;;;14.40;99.90;;;;;;5062088;28;20407;-68
2022/06/16 03:18:18;;;;;;;;;;;14.40;99.90;;;;;;5061779;28;20016;-68
2022/06/16 03:20:45;;;;;;;;;;;14.40;99.90;;;;;;5067861;28;20019;-68
2022/06/16 03:23:12;;;;;;;;;;;14.40;99.90;;;;;;5061918;28;20027;-68
2022/06/16 03:25:39;;;;;;;;;;;14.40;99.90;;;;;;5066887;28;19925;-68
2022/06/16 03:28:06;;;;;;;;;;;14.30;99.90;;;;;;5068623;28;20031;-68
2022/06/16 03:30:34;;;;;;;;;;;14.30;99.90;;;;;;5067231;28;19978;-68
2022/06/16 03:33:02;;;;;;;;;;;14.30;99.90;;;;;;5066249;28;20295;-69
2022/06/16 03:35:29;;;;;;;;;;;14.30;99.90;;;;;;5064469;28;19924;-69
2022/06/16 03:37:55;;;;;;;;;;;14.30;99.90;;;;;;5056247;28;19976;-69
2022/06/16 03:40:22;;;;;;;;;;;14.30;99.90;;;;;;5058227;28;20383;-69
2022/06/16 03:42:49;;;;;;;;;;;14.30;99.90;;;;;;5061754;28;20383;-69
2022/06/16 03:45:16;;;;;;;;;;;14.30;99.90;;;;;;5062956;28;19925;-69
2022/06/16 03:47:44;;;;;;;;;;;14.40;99.90;;;;;;5057799;28;19978;-68
2022/06/16 03:50:14;;;;;;;;;;;14.40;99.90;;;;;;5059623;28;20023;-69
2022/06/16 03:52:41;;;;;;;;;;;14.40;99.90;;;;;;5060956;28;20177;-68
2022/06/16 03:55:08;;;;;;;;;;;14.40;99.90;;;;;;5053789;28;19976;-69
2022/06/16 03:57:35;;;;;;;;;;;14.40;99.90;;;;;;5064699;28;19932;-69
2022/06/16 04:00:02;;;;;;;;;;;14.50;99.90;;;;;;5062162;28;20357;-69
2022/06/16 04:02:28;;;;;;;;;;;14.50;99.90;;;;;;5056707;28;19952;-69
2022/06/16 04:04:55;;;;;;;;;;;14.50;99.90;;;;;;5057081;28;19979;-69
2022/06/16 04:07:22;;;;;;;;;;;14.50;99.90;;;;;;5067618;28;20058;-70
2022/06/16 04:09:49;;;;;;;;;;;14.60;99.90;;;;;;5065749;28;20028;-71
2022/06/16 04:12:15;;;;;;;;;;;14.60;99.90;;;;;;5069949;28;19931;-70
2022/06/16 04:14:42;;;;;;;;;;;14.70;99.90;;;;;;5066354;28;19970;-70
2022/06/16 04:17:09;;;;;;;;;;;14.70;99.90;;;;;;5053533;28;20359;-70
2022/06/16 04:20:11;;;;;;;;;;;14.70;99.90;;;;;;5054468;28;20027;-71
2022/06/16 04:22:24;;;;;;;;;;;14.70;99.90;;;;;;5052556;28;19933;-70
2022/06/16 04:24:51;;;;;;;;;;;14.70;99.90;;;;;;5059128;28;20372;-70
2022/06/16 04:27:17;;;;;;;;;;;14.70;99.90;;;;;;5066933;28;20279;-70
2022/06/16 04:29:44;;;;;;;;;;;14.70;99.90;;;;;;5066889;28;19972;-71
2022/06/16 04:32:11;;;;;;;;;;;14.80;99.90;;;;;;5064910;28;20027;-70
2022/06/16 04:34:38;;;;;;;;;;;14.90;99.90;;;;;;5061820;28;19960;-70
2022/06/16 04:37:05;;;;;;;;;;;14.90;99.90;;;;;;5055273;28;19925;-71
2022/06/16 04:39:33;;;;;;;;;;;15.00;99.90;;;;;;5057201;28;19971;-70
2022/06/16 04:42:00;;;;;;;;;;;15.00;99.90;;;;;;5054029;28;20396;-69
2022/06/16 04:44:27;;;;;;;;;;;15.00;99.90;;;;;;5064157;28;20007;-69
2022/06/16 04:46:53;;;;;;;;;;;15.00;99.90;;;;;;5071180;28;20243;-70
2022/06/16 04:49:20;;;;;;;;;;;15.10;99.90;;;;;;5067766;28;19924;-70
2022/06/16 04:51:47;;;;;;;;;;;15.10;99.90;;;;;;5059898;28;20011;-69
2022/06/16 04:54:13;;;;;;;;;;;15.20;99.90;;;;;;5053336;28;20019;-69
2022/06/16 04:56:42;;;;;;;;;;;15.20;99.90;;;;;;5064011;28;20082;-69
2022/06/16 04:59:09;;;;;;;;;;;15.20;99.90;;;;;;5057342;28;19931;-69
2022/06/16 05:01:35;;;;;;;;;;;15.30;99.90;;;;;;5061621;28;19931;-69
2022/06/16 05:04:02;;;;;;;;;;;15.30;99.90;;;;;;5060350;28;19931;-69
2022/06/16 05:06:29;;;;;;;;;;;15.30;99.90;;;;;;5069896;28;20020;-69
2022/06/16 05:08:55;;;;;;;;;;;15.40;99.90;;;;;;5062559;28;20019;-69
2022/06/16 05:11:22;;;;;;;;;;;15.50;99.90;;;;;;5070043;28;20439;-69
2022/06/16 05:13:50;;;;;;;;;;;15.60;99.90;;;;;;5055451;28;20340;-69
2022/06/16 05:16:17;;;;;;;;;;;15.60;99.90;;;;;;5067363;28;20265;-69
2022/06/16 05:18:43;;;;;;;;;;;15.70;99.90;;;;;;5055233;28;20031;-68
2022/06/16 05:21:11;;;;;;;;;;;15.80;99.90;;;;;;5068517;28;19990;-68
2022/06/16 05:23:38;;;;;;;;;;;15.80;99.90;;;;;;5063388;28;20015;-68
2022/06/16 05:26:05;;;;;;;;;;;15.80;99.90;;;;;;5061182;28;20028;-69
2022/06/16 05:28:32;;;;;;;;;;;15.90;99.90;;;;;;5063353;28;20023;-70
2022/06/16 05:31:00;;;;;;;;;;;15.90;99.90;;;;;;5063558;28;19935;-70
2022/06/16 05:33:27;;;;;;;;;;;15.80;99.90;;;;;;5064006;28;20211;-69
2022/06/16 05:35:57;;;;;;;;;;;15.90;99.90;;;;;;5059824;28;20019;-70
2022/06/16 05:38:23;;;;;;;;;;;16.00;99.90;;;;;;5065206;28;19935;-70
2022/06/16 05:40:55;;;;;;;;;;;16.00;99.90;;;;;;5061048;28;20019;-70
2022/06/16 05:43:22;;;;;;;;;;;16.10;99.90;;;;;;5067062;28;20299;-70
2022/06/16 05:45:49;;;;;;;;;;;16.10;99.90;;;;;;5066022;28;19928;-70
2022/06/16 05:48:17;;;;;;;;;;;16.10;99.90;;;;;;5071596;28;19975;-68
2022/06/16 05:50:43;;;;;;;;;;;16.10;99.90;;;;;;5064145;28;19924;-69
2022/06/16 05:53:10;;;;;;;;;;;16.20;99.80;;;;;;5069900;28;20371;-70
2022/06/16 05:55:37;;;;;;;;;;;16.30;99.90;;;;;;5069697;28;20024;-70
2022/06/16 05:58:04;;;;;;;;;;;16.40;99.20;;;;;;5060889;28;19928;-69
2022/06/16 06:00:30;;;;;;;;;;;16.60;99.90;;;;;;5064338;28;19924;-69
2022/06/16 06:02:58;;;;;;;;;;;17.60;98.00;;;;;;5064360;28;19947;-69
2022/06/16 06:05:26;;;;;;;;;;;18.80;93.00;;;;;;5067049;28;19928;-69
2022/06/16 06:16:35;;;;;;;;;;;19.90;85.70;;;;;;5063075;28;20147;-70
2022/06/16 06:19:23;;;;;;;;;;;20.20;83.10;;;;;;5061315;28;19924;-70
2022/06/16 06:22:06;;;;;;;;;;;21.00;77.30;;;;;;5064825;28;19933;-68
2022/06/16 06:24:34;;;;;;;;;;;22.00;71.90;;;;;;5062801;28;20019;-70
2022/06/16 06:27:03;;;;;;;;;;;22.30;69.80;;;;;;5062844;28;19932;-70
2022/06/16 06:29:29;;;;;;;;;;;23.40;59.40;;;;;;5067252;28;19939;-70
2022/06/16 06:31:57;;;;;;;;;;;22.60;58.10;;;;;;5055191;28;19924;-69
2022/06/16 06:34:23;;;;;;;;;;;21.80;59.50;;;;;;5060016;28;19932;-70
2022/06/16 06:36:52;;;;;;;;;;;22.20;58.50;;;;;;5068916;28;20016;-69
2022/06/16 06:39:18;;;;;;;;;;;22.70;57.20;;;;;;5060356;28;19925;-70
2022/06/16 06:41:45;;;;;;;;;;;22.80;56.40;;;;;;5065787;28;19924;-71
2022/06/16 06:44:12;;;;;;;;;;;23.00;56.10;;;;;;5068739;28;20239;-69
2022/06/16 06:46:39;;;;;;;;;;;23.20;52.30;;;;;;5062174;28;19925;-68
2022/06/16 06:49:05;;;;;;;;;;;23.10;53.30;;;;;;5066678;28;20038;-69
2022/06/16 06:51:32;;;;;;;;;;;22.70;53.80;;;;;;5062943;28;20384;-69
2022/06/16 06:54:01;;;;;;;;;;;21.90;53.90;;;;;;5060370;28;19960;-69
2022/06/16 06:56:29;;;;;;;;;;;22.40;53.50;;;;;;5065487;28;19979;-69
2022/06/16 06:58:57;;;;;;;;;;;22.90;52.90;;;;;;5068752;28;19979;-69
2022/06/16 07:01:24;;;;;;;;;;;22.70;51.50;;;;;;5070697;28;20038;-69
2022/06/16 07:03:50;;;;;;;;;;;22.50;53.00;;;;;;5069193;28;19975;-69
2022/06/16 07:06:18;;;;;;;;;;;24.00;48.20;;;;;;5059179;28;19925;-69
2022/06/16 07:08:45;;;;;;;;;;;23.00;49.70;;;;;;5067408;28;19925;-69
2022/06/16 07:11:13;;;;;;;;;;;22.50;51.10;;;;;;5067471;28;20387;-69
2022/06/16 07:13:40;;;;;;;;;;;22.60;51.60;;;;;;5067407;28;19974;-68
2022/06/16 07:16:07;;;;;;;;;;;22.50;51.10;;;;;;5066865;28;19928;-68
2022/06/16 07:18:34;;;;;;;;;;;22.50;51.20;;;;;;5071825;28;19978;-67
2022/06/16 07:21:00;;;;;;;;;;;23.30;49.50;;;;;;5069326;28;19977;-68
2022/06/16 07:23:27;;;;;;;;;;;23.50;47.90;;;;;;5069961;28;20023;-68
2022/06/16 07:25:54;;;;;;;;;;;23.30;48.90;;;;;;5072079;28;20010;-68
2022/06/16 07:28:22;;;;;;;;;;;23.30;46.60;;;;;;5069722;28;19931;-68
2022/06/16 07:30:49;;;;;;;;;;;24.00;46.80;;;;;;5071109;28;20346;-68
2022/06/16 07:33:16;;;;;;;;;;;23.50;45.00;;;;;;5069472;28;19954;-68
2022/06/16 07:35:43;;;;;;;;;;;25.00;43.60;;;;;;5061808;28;19965;-70
2022/06/16 07:38:10;;;;;;;;;;;27.50;37.50;;;;;;5069980;28;19925;-70
2022/06/16 07:40:37;;;;;;;;;;;;;;;;;;5065834;28;19964;-71
2022/06/16 07:43:04;;;;;;;;;;;25.90;33.70;;;;;;5062842;28;20015;-70
2022/06/16 07:45:34;;;;;;;;;;;26.40;34.10;;;;;;5059788;28;20387;-70
2022/06/16 07:48:02;;;;;;;;;;;25.00;35.50;;;;;;5060071;28;20028;-69
2022/06/16 07:50:29;;;;;;;;;;;24.10;36.40;;;;;;5062712;28;20447;-69
2022/06/16 07:52:56;;;;;;;;;;;24.40;36.40;;;;;;5068350;28;19924;-69
2022/06/16 07:55:23;;;;;;;;;;;24.20;36.20;;;;;;5065314;28;19971;-69
2022/06/16 07:57:50;;;;;;;;;;;23.80;37.30;;;;;;5068822;28;19928;-69
2022/06/16 08:00:19;;;;;;;;;;;23.60;38.80;;;;;;5067062;28;19924;-69
2022/06/16 08:02:47;;;;;;;;;;;24.00;38.10;;;;;;5064671;28;19924;-69
2022/06/16 08:05:14;;;;;;;;;;;25.60;35.00;;;;;;5063469;28;19931;-70
2022/06/16 08:07:41;;;;;;;;;;;26.20;33.70;;;;;;5068086;28;19931;-70
2022/06/16 08:10:09;;;;;;;;;;;25.40;33.20;;;;;;5069033;28;20015;-70
2022/06/16 08:12:37;;;;;;;;;;;25.80;33.20;;;;;;5066785;28;20760;-70
2022/06/16 08:15:04;;;;;;;;;;;25.20;32.20;;;;;;5062319;28;20395;-70
2022/06/16 08:17:32;;;;;;;;;;;24.90;32.00;;;;;;5068724;28;19924;-70
2022/06/16 08:20:00;;;;;;;;;;;24.70;32.70;;;;;;5067027;28;20054;-70
2022/06/16 08:22:27;;;;;;;;;;;24.30;34.10;;;;;;5061363;28;19964;-70
2022/06/16 08:24:55;;;;;;;;;;;23.30;35.80;;;;;;5068508;28;20332;-70
2022/06/16 08:27:23;;;;;;;;;;;23.80;36.50;;;;;;5068642;28;19924;-71
2022/06/16 08:29:50;;;;;;;;;;;25.00;32.60;;;;;;5061864;28;20020;-70
2022/06/16 08:32:18;;;;;;;;;;;24.70;32.00;;;;;;5066472;28;19931;-70
2022/06/16 08:34:45;;;;;;;;;;;25.40;32.00;;;;;;5063886;28;20019;-70
2022/06/16 08:37:13;;;;;;;;;;;25.40;29.50;;;;;;5065458;28;20010;-71
2022/06/16 08:39:40;;;;;;;;;;;25.60;30.30;;;;;;5070924;28;20015;-70
2022/06/16 08:42:09;;;;;;;;;;;25.70;30.20;;;;;;5068092;28;19963;-70
2022/06/16 08:44:40;;;;;;;;;;;24.90;29.40;;;;;;5067194;28;20410;-70
2022/06/16 08:47:09;;;;;;;;;;;24.60;30.30;;;;;;5068768;28;20457;-70
2022/06/16 08:49:39;;;;;;;;;;;24.40;29.70;;;;;;5066305;28;20007;-70
2022/06/16 08:52:21;;;;;;;;;;;24.10;30.30;;;;;;5066331;28;19978;-70
2022/06/16 08:54:53;;;;;;;;;;;24.60;29.80;;;;;;5064192;28;19931;-70
2022/06/16 08:57:26;;;;;;;;;;;24.30;29.50;;;;;;5061928;28;19924;-71
2022/06/16 08:59:54;;;;;;;;;;;24.60;29.80;;;;;;5062968;28;19979;-70
2022/06/16 09:02:24;;;;;;;;;;;24.90;29.20;;;;;;5053296;28;19940;-70
2022/06/16 09:04:52;;;;;;;;;;;26.50;27.30;;;;;;5063729;28;19974;-69
2022/06/16 09:07:26;;;;;;;;;;;26.90;26.50;;;;;;5066300;28;20021;-70
2022/06/16 09:10:17;;;;;;;;;;;27.60;24.70;;;;;;5059522;28;19959;-70
2022/06/16 09:13:09;;;;;;;;;;;27.10;24.80;;;;;;5069419;28;20012;-70
2022/06/16 09:15:39;;;;;;;;;;;26.10;27.30;;;;;;5062821;28;19983;-70
2022/06/16 09:18:15;;;;;;;;;;;26.30;26.60;;;;;;5064752;28;19999;-69
2022/06/16 09:20:45;;;;;;;;;;;25.40;25.40;;;;;;5068799;28;20015;-70
2022/06/16 09:23:22;;;;;;;;;;;24.80;27.40;;;;;;5068354;28;20042;-70
2022/06/16 09:25:55;;;;;;;;;;;25.10;26.30;;;;;;5060108;28;19931;-69
2022/06/16 09:28:25;;;;;;;;;;;25.10;26.60;;;;;;5068669;28;20367;-71
2022/06/16 09:30:53;;;;;;;;;;;25.70;25.10;;;;;;5064211;28;19925;-70
2022/06/16 09:33:21;;;;;;;;;;;26.30;22.60;;;;;;5060463;28;20019;-70
2022/06/16 09:35:50;;;;;;;;;;;26.80;20.80;;;;;;5067528;28;20003;-69
2022/06/16 09:38:21;;;;;;;;;;;26.10;21.50;;;;;;5065128;28;20292;-70
2022/06/16 09:40:51;;;;;;;;;;;26.10;22.30;;;;;;5066695;28;20023;-69
2022/06/16 09:43:22;;;;;;;;;;;25.80;23.40;;;;;;5065430;28;20358;-69
2022/06/16 09:45:53;;;;;;;;;;;25.40;22.50;;;;;;5068322;28;20023;-69
2022/06/16 09:48:21;;;;;;;;;;;24.70;22.70;;;;;;5058144;28;19936;-70
2022/06/16 09:50:52;;;;;;;;;;;25.60;21.50;;;;;;5068480;28;19924;-69
2022/06/16 09:53:25;;;;;;;;;;;25.30;20.30;;;;;;5064612;28;19936;-69
2022/06/16 09:55:54;;;;;;;;;;;25.70;21.70;;;;;;5066981;28;20280;-70
2022/06/16 09:58:23;;;;;;;;;;;25.30;21.60;;;;;;5060511;28;19925;-69
2022/06/16 10:00:51;;;;;;;;;;;25.10;21.90;;;;;;5062535;28;20016;-70
2022/06/16 10:03:24;;;;;;;;;;;25.00;20.00;;;;;;5065667;28;20232;-69
2022/06/16 10:05:58;;;;;;;;;;;25.70;20.40;;;;;;5056692;28;19931;-69
2022/06/16 10:08:29;;;;;;;;;;;24.80;16.70;;;;;;5059896;28;19948;-69
2022/06/16 10:10:59;;;;;;;;;;;25.50;18.30;;;;;;5061145;28;19932;-70
2022/06/16 10:13:29;;;;;;;;;;;24.60;19.00;;;;;;5066208;28;19932;-70
2022/06/16 10:16:01;;;;;;;;;;;24.10;18.30;;;;;;5064986;28;19924;-70
2022/06/16 10:18:28;;;;;;;;;;;24.30;19.50;;;;;;5067723;28;19924;-70
2022/06/16 10:20:55;;;;;;;;;;;23.40;18.30;;;;;;5068207;28;19960;-71
2022/06/16 10:23:23;;;;;;;;;;;23.30;20.50;;;;;;5066388;28;19968;-70
2022/06/16 10:25:55;;;;;;;;;;;23.70;20.70;;;;;;5061649;28;20016;-70
2022/06/16 10:28:28;;;;;;;;;;;23.50;21.00;;;;;;5054461;28;19928;-69
2022/06/16 10:30:55;;;;;;;;;;;23.00;21.20;;;;;;5064885;28;20379;-70
2022/06/16 10:33:23;;;;;;;;;;;23.10;20.90;;;;;;5067133;28;20355;-70
2022/06/16 10:35:52;;;;;;;;;;;23.40;22.60;;;;;;5059675;28;20036;-70
2022/06/16 10:38:23;;;;;;;;;;;23.30;21.60;;;;;;5070077;28;20020;-70
2022/06/16 10:40:49;;;;;;;;;;;23.30;21.50;;;;;;5062615;28;19928;-71
2022/06/16 10:43:19;;;;;;;;;;;23.70;20.70;;;;;;5058226;28;20387;-72
2022/06/16 10:45:54;;;;;;;;;;;23.80;21.20;;;;;;5064864;28;19990;-70
2022/06/16 10:48:28;;;;;;;;;;;23.30;19.20;;;;;;5064371;28;19952;-70
2022/06/16 10:51:02;;;;;;;;;;;23.20;20.70;;;;;;5072691;28;20402;-70
2022/06/16 10:53:31;;;;;;;;;;;23.30;20.80;;;;;;5066239;28;20012;-70
2022/06/16 10:56:02;;;;;;;;;;;23.10;20.40;;;;;;5064334;28;20345;-70
2022/06/16 10:58:31;;;;;;;;;;;23.30;21.40;;;;;;5063514;28;19929;-70
2022/06/16 11:01:05;;;;;;;;;;;23.10;20.80;;;;;;5069536;28;20483;-69
2022/06/16 11:03:34;;;;;;;;;;;23.40;21.40;;;;;;5071665;28;19924;-70
2022/06/16 11:06:02;;;;;;;;;;;23.40;21.50;;;;;;5067984;28;20015;-70
2022/06/16 11:08:33;;;;;;;;;;;23.50;22.90;;;;;;5069184;28;20006;-70
2022/06/16 11:11:00;;;;;;;;;;;23.70;23.50;;;;;;5071107;28;19924;-70
2022/06/16 11:13:28;;;;;;;;;;;23.80;22.50;;;;;;5072931;28;19924;-70
2022/06/16 11:15:56;;;;;;;;;;;23.60;22.50;;;;;;5069958;28;19929;-70
2022/06/16 11:18:25;;;;;;;;;;;23.40;21.60;;;;;;5071598;28;19955;-70
2022/06/16 11:20:53;;;;;;;;;;;24.00;21.70;;;;;;5068697;28;19924;-70
2022/06/16 11:23:25;;;;;;;;;;;24.40;20.40;;;;;;5071239;28;19931;-71
2022/06/16 11:25:55;;;;;;;;;;;24.10;20.90;;;;;;5066755;28;19924;-71
2022/06/16 11:28:22;;;;;;;;;;;23.90;21.00;;;;;;5068731;28;20076;-71
2022/06/16 11:30:58;;;;;;;;;;;24.10;22.00;;;;;;5067964;28;19925;-71
2022/06/16 11:36:14;;;;;;;;;;;23.80;20.70;;;;;;5067486;28;19932;-71
2022/06/16 11:38:47;;;;;;;;;;;23.80;20.90;;;;;;5056940;28;20005;-71
2022/06/16 11:41:15;;;;;;;;;;;24.30;22.50;;;;;;5062954;28;19963;-69
2022/06/16 11:43:49;;;;;;;;;;;24.20;20.10;;;;;;5073008;28;19947;-73
2022/06/16 11:46:20;;;;;;;;;;;24.40;21.40;;;;;;5062532;28;19924;-70
2022/06/16 11:49:09;;;;;;;;;;;24.20;20.80;;;;;;5067261;28;19967;-71
2022/06/16 11:51:39;;;;;;;;;;;24.90;21.00;;;;;;5055147;28;19943;-71
2022/06/16 11:54:14;;;;;;;;;;;24.30;20.50;;;;;;5061376;28;20007;-71
2022/06/16 11:56:43;;;;;;;;;;;24.50;21.00;;;;;;5060420;28;20015;-71
2022/06/16 11:59:25;;;;;;;;;;;24.70;19.70;;;;;;5065622;28;19963;-71
2022/06/16 12:01:55;;;;;;;;;;;25.00;19.90;;;;;;5075897;28;19924;-71
2022/06/16 12:04:35;;;;;;;;;;;24.50;20.40;;;;;;5066849;28;20280;-71
2022/06/16 12:07:09;;;;;;;;;;;24.50;21.10;;;;;;5068176;28;19960;-71
2022/06/16 12:09:41;;;;;;;;;;;24.60;20.30;;;;;;5070091;28;19931;-70
2022/06/16 12:12:11;;;;;;;;;;;24.70;21.30;;;;;;5071146;28;19986;-70
2022/06/16 12:14:43;;;;;;;;;;;24.60;21.40;;;;;;5067787;28;20346;-71
2022/06/16 12:17:14;;;;;;;;;;;24.50;20.70;;;;;;5067937;28;19925;-71
2022/06/16 12:19:46;;;;;;;;;;;24.40;21.10;;;;;;5067881;28;20015;-70
2022/06/16 12:22:15;;;;;;;;;;;24.60;20.70;;;;;;5064477;28;20414;-71
2022/06/16 12:24:47;;;;;;;;;;;25.00;19.70;;;;;;5068249;28;20344;-70
2022/06/16 12:27:16;;;;;;;;;;;25.00;19.50;;;;;;5066092;28;19971;-70
2022/06/16 12:29:46;;;;;;;;;;;24.90;19.60;;;;;;5065960;28;19924;-70
2022/06/16 12:32:23;;;;;;;;;;;25.40;19.00;;;;;;5069536;28;19925;-72
2022/06/16 12:34:57;;;;;;;;;;;25.90;18.30;;;;;;5066951;28;19967;-70
2022/06/16 12:37:27;;;;;;;;;;;25.50;18.90;;;;;;5063986;28;19925;-70
2022/06/16 12:39:57;;;;;;;;;;;25.20;19.20;;;;;;5059879;28;19933;-70
2022/06/16 12:42:28;;;;;;;;;;;25.30;20.10;;;;;;5064602;28;19936;-70
2022/06/16 12:44:56;;;;;;;;;;;24.80;20.40;;;;;;5066417;28;19972;-70
2022/06/16 12:47:26;;;;;;;;;;;25.00;20.90;;;;;;5064905;28;20401;-69
2022/06/16 12:49:55;;;;;;;;;;;25.10;20.20;;;;;;5065998;28;19928;-69
2022/06/16 12:52:24;;;;;;;;;;;25.10;19.10;;;;;;5069591;28;19947;-70
2022/06/16 12:54:52;;;;;;;;;;;25.00;18.30;;;;;;5066602;28;19928;-69
2022/06/16 12:57:20;;;;;;;;;;;24.70;19.60;;;;;;5062384;28;20031;-70
2022/06/16 12:59:50;;;;;;;;;;;24.40;19.70;;;;;;5065375;28;19924;-70
2022/06/16 13:02:18;;;;;;;;;;;24.30;20.30;;;;;;5053656;28;19940;-69
2022/06/16 13:04:47;;;;;;;;;;;24.40;20.20;;;;;;5058803;28;19967;-69
2022/06/16 13:07:15;;;;;;;;;;;24.60;19.40;;;;;;5070636;28;20019;-70
2022/06/16 13:09:42;;;;;;;;;;;24.60;20.10;;;;;;5067447;28;19924;-69
2022/06/16 13:12:15;;;;;;;;;;;24.80;19.70;;;;;;5059206;28;19924;-69
2022/06/16 13:14:47;;;;;;;;;;;25.30;19.40;;;;;;5059721;28;19925;-68
2022/06/16 13:17:14;;;;;;;;;;;25.00;20.00;;;;;;5063443;28;20008;-69
2022/06/16 13:19:43;;;;;;;;;;;24.70;19.40;;;;;;5059490;28;20012;-69
2022/06/16 13:22:22;;;;;;;;;;;25.00;19.10;;;;;;5058302;28;19968;-69
2022/06/16 13:24:53;;;;;;;;;;;24.90;18.60;;;;;;5065743;28;19924;-70
2022/06/16 13:27:23;;;;;;;;;;;25.10;18.70;;;;;;5066645;28;20028;-70
2022/06/16 13:29:58;;;;;;;;;;;25.70;18.50;;;;;;5063968;28;20015;-70
2022/06/16 13:32:37;;;;;;;;;;;25.70;19.10;;;;;;5051883;28;19925;-70
2022/06/16 13:35:19;;;;;;;;;;;25.80;18.70;;;;;;5058974;28;19925;-70
2022/06/16 13:37:48;;;;;;;;;;;25.50;18.40;;;;;;5049871;28;20008;-69
2022/06/16 13:40:17;;;;;;;;;;;25.30;18.50;;;;;;5061138;28;19970;-70
2022/06/16 13:42:45;;;;;;;;;;;25.20;17.90;;;;;;5070176;28;19960;-70
2022/06/16 13:45:20;;;;;;;;;;;25.00;18.60;;;;;;5068702;28;19928;-70
2022/06/16 13:47:48;;;;;;;;;;;24.90;17.90;;;;;;5067350;28;20007;-70
2022/06/16 13:50:20;;;;;;;;;;;25.00;16.80;;;;;;5059457;28;19956;-70
2022/06/16 13:53:02;;;;;;;;;;;25.50;17.10;;;;;;5058898;28;19925;-70
2022/06/16 13:55:30;;;;;;;;;;;26.10;15.90;;;;;;5058070;28;20004;-70
2022/06/16 13:58:08;;;;;;;;;;;26.20;16.40;;;;;;5055095;28;20299;-70
2022/06/16 14:00:37;;;;;;;;;;;25.70;16.80;;;;;;5064945;28;19931;-70
2022/06/16 14:03:06;;;;;;;;;;;25.60;16.90;;;;;;5060408;28;19931;-70
2022/06/16 14:05:34;;;;;;;;;;;25.10;16.60;;;;;;5059033;28;19976;-70
2022/06/16 14:08:06;;;;;;;;;;;25.30;16.70;;;;;;5065758;28;19924;-70
2022/06/16 14:10:36;;;;;;;;;;;26.00;15.50;;;;;;5055889;28;19946;-70
2022/06/16 14:13:06;;;;;;;;;;;25.30;15.50;;;;;;5064739;28;19932;-70
2022/06/16 14:16:00;;;;;;;;;;;25.20;16.20;;;;;;5061459;28;19976;-71
2022/06/16 14:18:29;;;;;;;;;;;25.40;16.10;;;;;;5016107;28;19967;-71
2022/06/16 14:20:57;;;;;;;;;;;25.20;16.50;;;;;;5064434;28;19924;-70
2022/06/16 14:23:28;;;;;;;;;;;25.10;17.10;;;;;;5063420;28;21245;-72
2022/06/16 14:25:56;;;;;;;;;;;25.30;16.30;;;;;;5070924;28;19943;-71
2022/06/16 14:28:24;;;;;;;;;;;25.70;15.90;;;;;;5073050;28;19940;-70
2022/06/16 14:30:53;;;;;;;;;;;25.80;16.20;;;;;;5067720;28;19943;-71
2022/06/16 14:33:21;;;;;;;;;;;25.70;16.80;;;;;;5068385;28;19925;-69
2022/06/16 14:35:50;;;;;;;;;;;26.10;15.80;;;;;;5072036;28;19970;-71
2022/06/16 14:38:19;;;;;;;;;;;26.60;14.80;;;;;;5071292;28;19928;-69
2022/06/16 14:40:49;;;;;;;;;;;27.10;14.40;;;;;;5073116;28;20099;-71
2022/06/16 14:43:19;;;;;;;;;;;27.30;14.80;;;;;;5067182;28;19963;-70
2022/06/16 14:45:50;;;;;;;;;;;26.40;15.30;;;;;;5071499;28;20021;-71
2022/06/16 14:48:22;;;;;;;;;;;26.10;15.90;;;;;;5069348;28;19971;-71